Gobowen, United Kingdom
Current Conditions -  °F | °C
As of 2:50 AM on Tuesday 23 Dec 2014 (Local Time) from EGOS Reporting Station
Light Rain Light Rain  
Wind Chill: 10°   Ceiling: 2100
Heat Index: 10°   Visibility: 2.1mi
Dew Point:   Wind: 18mph
Humidity: 94%   Direction: 220°SW
Pressure: 29.91"   Gusts: NA
Location:  52.9°N, 3.04°W
Report Text: EGOS 230250Z AUTO 22016KT 3400 -RADZ SCT018/// BKN021/// BKN028/// 10/09 Q1013
Loading
Personal Weather Stations






























Interactive Weather Map New forecast layout! Learn more

10-Day Weather Forecast

Advertisements
Track Severe Weather on mobile